Latest Weather Observations for Oakey

IDQ60801

Issued at 6:02 pm EST Saturday 27 May 2017 (issued every 30 minutes, with the page automatically refreshed every 10 minutes)

About weather observations | Map of weather stations | Latest weather observations for QLD | Other Formats
Station Details ID: 041359 Name: OAKEY AERO Lat: -27.40 Lon: 151.74 Height: 405.69 m
Data from the previous 72 hours. | See also: Recent months at Oakey
Date/Time
EST
Temp
°C
App
Temp
°C
Dew
Point
°C
Rel
Hum
%
Delta-T
°C
Wind Press
QNH
hPa
Press
MSL
hPa
Rain since
9am
mm
Dir  Spd
km/h
Gust
km/h
Spd
kts
Gust
kts
27/05:30pm 16.8 13.8 9.2 61 4.0 E 15 17 8 9 1019.5 1018.8 0.0
27/05:00pm 18.7 14.7 9.2 54 5.1 E 20 24 11 13 1019.1 1018.4 0.0
27/04:30pm 19.9 16.0 9.5 51 5.6 E 20 30 11 16 1018.8 1018.1 0.0
27/04:00pm 20.9 16.7 9.8 49 6.1 E 22 28 12 15 1018.8 1018.1 0.0
27/03:30pm 21.1 16.7 9.0 46 6.5 E 22 26 12 14 1018.8 1018.1 0.0
27/03:00pm 22.5 18.6 8.6 41 7.5 E 19 28 10 15 1018.8 1018.1 0.0
27/02:30pm 23.3 20.6 7.4 36 8.5 E 11 24 6 13 1018.7 1018.0 0.0
27/02:00pm 22.8 21.0 7.0 36 8.3 W 6 9 3 5 1018.8 1018.1 0.0
27/01:30pm 22.8 20.4 7.0 36 8.3 NNW 9 20 5 11 1019.1 1018.4 0.0
27/01:00pm 22.3 20.5 7.3 38 7.9 WNW 6 17 3 9 1019.5 1018.8 0.0
27/12:30pm 22.2 19.7 8.0 40 7.6 ENE 11 20 6 11 1020.0 1019.3 0.0
27/12:00pm 21.0 19.5 8.3 44 6.8 E 6 15 3 8 1020.5 1019.9 0.0
27/11:30am 21.6 20.5 9.8 47 6.5 ENE 6 17 3 9 1021.1 1020.4 0.0
27/11:00am 20.3 18.9 9.5 50 5.8 ENE 7 11 4 6 1021.7 1021.0 0.0
27/10:30am 20.7 20.4 11.3 55 5.3 E 4 11 2 6 1022.1 1021.4 0.0
27/10:00am 19.6 19.2 13.1 66 3.7 NE 7 11 4 6 1022.5 1021.9 0.0
27/09:30am 18.5 17.4 13.1 71 3.1 ENE 11 15 6 8 1022.7 1022.1 0.0
27/09:00am 16.7 16.1 13.6 82 1.8 ESE 9 13 5 7 1022.8 1022.2 0.0
27/08:30am 14.8 14.6 13.5 92 0.7 ESE 7 9 4 5 1022.9 1022.3 0.0
27/08:00am 13.4 13.0 12.9 97 0.3 ESE 7 11 4 6 1022.8 1022.2 0.0
27/07:51am 12.8 12.2 12.3 97 0.3 ESE 7 9 4 5 1022.7 1022.1 0.0
27/07:30am 10.9 9.9 10.4 97 0.3 SE 6 7 3 4 1022.5 1021.9 0.0
27/07:00am 7.8 6.1 7.4 97 0.2 SE 6 7 3 4 1022.1 1021.4 0.0
27/06:30am 8.6 7.0 8.2 97 0.2 SSE 6 7 3 4 1021.8 1021.1 0.0
27/06:00am 9.9 9.8 9.4 97 0.3 CALM 0 4 0 2 1021.4 1020.7 0.0
27/05:30am 8.8 7.1 8.4 97 0.2 ESE 7 7 4 4 1021.1 1020.4 0.0
27/05:17am 9.0 7.4 8.6 97 0.2 ESE 7 9 4 5 1021.0 1020.3 0.0
27/05:12am 9.0 7.4 8.6 97 0.2 ESE 7 9 4 5 1021.0 1020.3 0.0
27/05:00am 9.7 7.8 9.2 97 0.3 ESE 9 9 5 5 1020.9 1020.2 0.0
27/04:35am 9.0 7.4 8.6 97 0.2 ESE 7 9 4 5 1020.8 1020.1 0.0
27/04:30am 9.7 7.8 9.2 97 0.3 ESE 9 11 5 6 1020.9 1020.2 0.0
27/04:00am 9.5 8.0 9.0 97 0.3 ESE 7 9 4 5 1020.8 1020.1 0.0
27/03:30am 10.1 7.6 9.6 97 0.3 E 13 15 7 8 1020.8 1020.1 0.0
27/03:00am 10.5 8.8 10.0 97 0.3 E 9 11 5 6 1020.9 1020.2 0.0
27/02:30am 9.9 8.1 9.3 96 0.3 E 9 11 5 6 1021.0 1020.3 0.0
27/02:00am 10.4 8.2 9.5 94 0.5 ESE 11 11 6 6 1021.0 1020.3 0.0
27/01:30am 11.1 9.4 9.9 92 0.6 ESE 9 11 5 6 1021.1 1020.4 0.0
27/01:00am 11.4 10.1 10.1 92 0.7 E 7 9 4 5 1021.3 1020.6 0.0
27/12:30am 11.1 8.2 9.7 91 0.7 E 15 17 8 9 1021.3 1020.6 0.0
27/12:00am 11.1 8.5 9.4 89 0.9 ENE 13 15 7 8 1021.5 1020.8 0.0
 
Date/Time
EST
Temp
°C
App
Temp
°C
Dew
Point
°C
Rel
Hum
%
Delta-T
°C
Wind Press
QNH
hPa
Press
MSL
hPa
Rain since
9am
mm
Dir  Spd
km/h
Gust
km/h
Spd
kts
Gust
kts
26/11:30pm 11.7 9.1 9.3 85 1.2 E 13 15 7 8 1021.4 1020.7 0.0
26/11:00pm 12.2 10.1 9.6 84 1.3 E 11 13 6 7 1021.5 1020.8 0.0
26/10:30pm 12.1 9.2 9.5 84 1.3 E 15 17 8 9 1021.4 1020.7 0.0
26/10:00pm 13.0 9.9 10.2 83 1.5 E 17 20 9 11 1021.4 1020.7 0.0
26/09:30pm 12.3 9.9 9.9 85 1.3 E 13 15 7 8 1021.2 1020.5 0.0
26/09:00pm 12.9 10.9 10.3 84 1.4 ENE 11 13 6 7 1021.0 1020.3 0.0
26/08:30pm 13.0 10.7 10.5 85 1.3 ENE 13 13 7 7 1020.6 1020.0 0.0
26/08:00pm 13.5 11.3 10.9 84 1.4 E 13 13 7 7 1020.3 1019.7 0.0
26/07:30pm 13.8 11.3 11.1 84 1.5 E 15 17 8 9 1020.1 1019.4 0.0
26/07:00pm 15.5 12.8 11.7 78 2.1 E 17 19 9 10 1019.8 1019.1 0.0
26/06:30pm 15.5 13.2 11.7 78 2.1 E 15 19 8 10 1019.4 1018.7 0.0
26/06:00pm 15.6 13.2 9.9 69 3.0 E 13 15 7 8 1019.1 1018.4 0.0
26/05:30pm 17.4 14.1 9.6 60 4.2 E 17 20 9 11 1018.8 1018.1 0.0
26/05:00pm 20.0 18.9 7.1 43 6.7 SSE 2 7 1 4 1018.5 1017.8 0.0
26/04:30pm 21.4 20.0 8.7 44 6.8 SSW 6 7 3 4 1018.4 1017.7 0.0
26/04:00pm 21.9 20.2 7.7 40 7.5 S 6 9 3 5 1018.2 1017.5 0.0
26/03:30pm 22.2 20.5 8.3 41 7.5 SE 7 9 4 5 1018.2 1017.5 0.0
26/03:00pm 22.4 20.8 7.8 39 7.8 NW 6 9 3 5 1018.3 1017.6 0.0
26/02:30pm 22.5 20.6 7.5 38 8.0 WNW 7 13 4 7 1018.6 1017.9 0.0
26/02:00pm 22.9 20.9 8.6 40 7.7 WNW 9 13 5 7 1018.9 1018.2 0.0
26/01:30pm 21.8 19.8 8.7 43 7.1 ESE 9 13 5 7 1019.2 1018.5 0.0
26/01:00pm 21.8 20.4 9.7 46 6.6 SSE 7 11 4 6 1019.6 1018.9 0.0
26/12:30pm 21.3 20.2 10.5 50 6.0 N 7 11 4 6 1020.1 1019.4 0.0
26/12:00pm 21.4 19.9 10.6 50 6.0 NNW 9 15 5 8 1020.8 1020.1 0.0
26/11:30am 20.8 20.4 11.2 54 5.4 WNW 4 9 2 5 1021.4 1020.7 0.0
26/11:00am 20.3 19.4 12.5 61 4.5 NNE 9 13 5 7 1021.7 1021.0 0.0
26/10:30am 18.3 18.0 13.2 72 2.9 N 7 11 4 6 1022.0 1021.3 0.0
26/10:00am 18.9 19.3 14.8 77 2.4 NNE 6 11 3 6 1022.2 1021.5 0.0
26/09:30am 16.8 18.2 14.3 85 1.5 CALM 0 6 0 3 1022.5 1021.9 0.0
26/09:15am 15.5 16.2 14.4 93 0.6 SE 4 7 2 4 1022.6 1022.0 0.0
26/09:00am 14.7 14.9 14.2 97 0.3 SE 6 7 3 4 1022.5 1021.9 0.0
26/08:30am 12.8 12.2 12.3 97 0.3 ESE 7 9 4 5 1022.3 1021.7 0.0
26/08:22am 12.5 11.4 12.0 97 0.3 ESE 9 11 5 6 1022.2 1021.5 0.0
26/08:20am 12.3 11.2 11.8 97 0.3 SE 9 11 5 6 1022.2 1021.5 0.0
26/08:00am 11.0 10.8 10.5 97 0.3 SE 2 9 1 5 1022.1 1021.4 0.0
26/07:35am 9.2 8.2 8.7 97 0.2 SE 4 7 2 4 1021.7 1021.0 0.0
26/07:30am 9.1 7.5 8.6 97 0.2 SE 7 7 4 4 1021.6 1020.9 0.0
26/07:00am 7.3 6.2 6.9 97 0.2 NNE 2 6 1 3 1021.2 1020.5 0.0
26/06:47am 7.4 5.4 7.0 97 0.2 N 7 9 4 5 1021.1 1020.4 0.0
26/06:35am 7.1 5.0 6.7 97 0.2 NNE 7 9 4 5 1020.9 1020.2 0.0
26/06:30am 7.3 5.4 6.9 97 0.2 NE 6 9 3 5 1020.8 1020.1 0.0
26/06:00am 7.6 4.9 7.2 97 0.2 E 11 15 6 8 1020.3 1019.7 0.0
26/05:30am 8.5 6.4 8.1 97 0.2 ESE 9 11 5 6 1020.0 1019.3 0.0
26/05:00am 8.5 6.7 8.1 97 0.2 ENE 7 9 4 5 1019.9 1019.2 0.0
26/04:30am 8.2 6.0 7.8 97 0.2 ENE 9 11 5 6 1019.7 1019.0 0.0
26/04:25am 8.3 5.7 7.9 97 0.2 ENE 11 13 6 7 1019.7 1019.0 0.0
26/04:15am 7.8 5.5 7.4 97 0.2 ENE 9 11 5 6 1019.8 1019.1 0.0
26/04:00am 7.7 5.4 7.3 97 0.2 E 9 11 5 6 1019.9 1019.2 0.0
26/03:30am 8.3 6.5 7.9 97 0.2 SE 7 9 4 5 1019.8 1019.1 0.0
26/03:19am 8.6 6.9 8.2 97 0.2 ESE 7 9 4 5 1019.9 1019.2 0.0
26/03:00am 8.5 5.6 8.1 97 0.2 ESE 13 15 7 8 1019.9 1019.2 0.0
26/02:30am 8.9 5.7 8.5 97 0.2 ESE 15 17 8 9 1020.0 1019.3 0.0
26/02:23am 8.7 5.8 8.3 97 0.2 ESE 13 15 7 8 1020.1 1019.4 0.0
26/02:00am 7.7 5.0 7.3 97 0.2 ESE 11 13 6 7 1020.2 1019.6 0.0
26/01:30am 7.9 5.6 7.5 97 0.2 ESE 9 9 5 5 1020.3 1019.7 0.0
26/01:00am 8.3 5.7 7.9 97 0.2 ESE 11 13 6 7 1020.5 1019.9 0.0
26/12:30am 8.2 5.9 7.4 95 0.4 E 9 13 5 7 1020.8 1020.1 0.0
26/12:00am 8.9 7.4 8.3 96 0.3 NE 6 7 3 4 1021.0 1020.3 0.0
 
Date/Time
EST
Temp
°C
App
Temp
°C
Dew
Point
°C
Rel
Hum
%
Delta-T
°C
Wind Press
QNH
hPa
Press
MSL
hPa
Rain since
9am
mm
Dir  Spd
km/h
Gust
km/h
Spd
kts
Gust
kts
25/11:30pm 8.7 6.8 7.6 93 0.5 NE 7 11 4 6 1021.0 1020.3 0.0
25/11:00pm 9.8 7.8 8.7 93 0.5 E 9 9 5 5 1021.0 1020.3 0.0
25/10:30pm 9.8 7.8 8.7 93 0.6 ESE 9 11 5 6 1021.0 1020.3 0.0
25/10:00pm 10.4 7.5 9.5 94 0.5 SE 15 15 8 8 1020.9 1020.2 0.0
25/09:30pm 11.0 8.6 9.9 93 0.6 SE 13 13 7 7 1020.8 1020.1 0.0
25/09:00pm 11.6 11.7 10.2 91 0.7 CALM 0 9 0 5 1020.5 1019.9 0.0
25/08:30pm 10.5 8.1 8.6 88 1.0 E 11 13 6 7 1020.4 1019.8 0.0
25/08:00pm 11.0 9.0 8.8 86 1.1 ESE 9 11 5 6 1020.3 1019.7 0.0
25/07:30pm 12.7 11.3 9.7 82 1.6 ESE 7 9 4 5 1020.1 1019.4 0.0
25/07:00pm 14.6 14.8 10.4 76 2.2 CALM 0 0 0 0 1019.9 1019.2 0.0
25/06:30pm 15.7 15.8 10.2 70 2.9 CALM 0 0 0 0 1019.5 1018.8 0.0
25/06:00pm 16.8 16.4 11.1 69 3.1 SW 4 9 2 5 1019.1 1018.4 0.0
25/05:30pm 17.1 14.4 10.2 64 3.7 E 15 17 8 9 1018.7 1018.0 0.0
25/05:00pm 22.0 20.8 4.6 32 8.7 CALM 0 0 0 0 1018.3 1017.6 0.0
25/04:30pm 22.6 20.4 5.5 33 8.7 NNW 6 9 3 5 1018.0 1017.4 0.0
25/04:00pm 23.7 22.2 5.1 30 9.5 SSW 2 7 1 4 1017.9 1017.2 0.0
25/03:30pm 23.3 20.9 5.2 31 9.2 SSW 7 11 4 6 1017.8 1017.1 0.0
25/03:00pm 23.4 20.7 5.8 32 9.1 W 9 15 5 8 1017.7 1017.0 0.0
25/02:30pm 23.4 20.7 5.8 32 9.1 WNW 9 15 5 8 1017.7 1017.0 0.0
25/02:00pm 23.0 20.2 5.0 31 9.1 NW 9 17 5 9 1017.9 1017.2 0.0
25/01:30pm 22.6 20.3 5.5 33 8.7 SSW 7 13 4 7 1017.9 1017.2 0.0
25/01:00pm 22.5 20.2 5.9 34 8.5 NW 7 11 4 6 1018.3 1017.6 0.0
25/12:30pm 21.6 19.5 6.7 38 7.7 W 7 11 4 6 1018.8 1018.1 0.0
25/12:00pm 21.4 19.4 7.3 40 7.4 NW 7 11 4 6 1019.3 1018.6 0.0
25/11:30am 20.6 19.2 8.9 47 6.3 S 6 9 3 5 1019.6 1018.9 0.0
25/11:00am 19.9 19.0 9.2 50 5.8 SSW 4 9 2 5 1020.1 1019.4 0.0
25/10:30am 18.7 18.3 9.8 56 4.8 W 2 7 1 4 1020.4 1019.8 0.0
25/10:00am 17.9 17.1 11.0 64 3.8 WNW 6 9 3 5 1020.6 1020.0 0.0
25/09:30am 15.8 15.7 10.8 72 2.7 SSE 2 9 1 5 1020.6 1020.0 0.0
25/09:00am 14.2 13.7 10.6 79 1.9 WSW 4 7 2 4 1020.6 1020.0 0.0
25/08:30am 12.9 13.1 10.4 85 1.3 CALM 0 4 0 2 1020.5 1019.9 0.0
25/08:00am 11.1 10.8 10.0 93 0.6 E 2 7 1 4 1020.5 1019.9 0.0
25/07:30am 8.9 7.8 8.5 97 0.2 E 4 6 2 3 1020.4 1019.8 0.0
25/07:00am 6.0 3.9 5.6 97 0.2 NNE 6 7 3 4 1020.1 1019.4 0.0
25/06:30am 5.5 3.0 4.9 96 0.3 NNW 7 9 4 5 1019.8 1019.1 0.0
25/06:00am 6.5 4.7 5.6 94 0.4 WSW 4 6 2 3 1019.1 1018.4 0.0
25/05:30am 7.8 7.1 7.1 95 0.3 CALM 0 0 0 0 1018.9 1018.2 0.0
25/05:00am 8.5 6.2 7.4 93 0.5 W 9 9 5 5 1018.7 1018.0 0.0
25/04:30am 9.0 8.6 8.4 96 0.3 CALM 0 0 0 0 1018.5 1017.8 0.0
25/04:00am 8.8 5.8 7.9 94 0.4 W 13 15 7 8 1018.4 1017.7 0.0
25/03:30am 8.4 5.9 6.7 89 0.8 NW 9 11 5 6 1018.5 1017.8 0.0
25/03:00am 11.0 9.4 8.1 82 1.4 W 6 9 3 5 1018.4 1017.7 0.0
25/02:30am 13.3 10.0 9.5 78 2.0 WSW 17 20 9 11 1018.2 1017.5 0.0
25/02:00am 13.7 9.7 10.5 81 1.7 WSW 22 26 12 14 1018.3 1017.6 0.0
25/01:30am 12.6 9.9 10.5 87 1.1 WSW 15 17 8 9 1018.7 1018.0 0.0
25/01:00am 13.4 12.0 10.9 85 1.3 SW 9 13 5 7 1018.8 1018.1 0.0
25/12:30am 13.5 11.9 11.4 87 1.1 W 11 15 6 8 1018.9 1018.2 0.0
25/12:00am 11.5 9.9 8.9 84 1.3 N 7 9 4 5 1018.9 1018.2 0.0
 
Date/Time
EST
Temp
°C
App
Temp
°C
Dew
Point
°C
Rel
Hum
%
Delta-T
°C
Wind Press
QNH
hPa
Press
MSL
hPa
Rain since
9am
mm
Dir  Spd
km/h
Gust
km/h
Spd
kts
Gust
kts
24/11:30pm 14.0 12.1 10.6 80 1.8 W 11 15 6 8 1019.1 1018.4 0.0
24/11:00pm 14.4 12.8 10.2 76 2.2 W 9 13 5 7 1019.2 1018.5 0.0
24/10:30pm 13.3 13.2 9.4 77 2.0 CALM 0 0 0 0 1019.1 1018.4 0.0
24/10:00pm 13.4 13.0 9.8 79 1.9 N 2 9 1 5 1019.1 1018.4 0.0
24/09:30pm 13.5 13.4 9.6 77 2.0 CALM 0 0 0 0 1018.9 1018.2 0.0
24/09:00pm 14.6 13.8 9.8 73 2.5 NE 4 6 2 3 1018.6 1017.9 0.0
24/08:30pm 14.2 13.0 10.2 77 2.1 E 7 9 4 5 1018.5 1017.8 0.0
24/08:00pm 17.0 16.7 10.1 64 3.7 W 2 6 1 3 1018.2 1017.5 0.0
24/07:30pm 16.3 15.1 10.4 68 3.2 SE 7 17 4 9 1017.9 1017.2 0.0
24/07:00pm 17.1 15.7 9.5 61 4.0 ENE 7 11 4 6 1017.6 1016.9 0.0
24/06:30pm 19.8 18.1 9.7 52 5.5 WNW 9 9 5 5 1017.4 1016.7 0.0

Other Formats:

Comma delimited format used in spreadsheet applications
http://www.bom.gov.au/fwo/IDQ60801/IDQ60801.94552.axf

JavaScript Object Notation format (JSON) in row-major order
http://www.bom.gov.au/fwo/IDQ60801/IDQ60801.94552.json